Time;durP1;ratioP1;P1;durP2;ratioP2;P2;SDS_P1;SDS_P2;PMS_P1;PMS_P2;Temp;Humidity;BMP_temperature;BMP_pressure;BME280_temperature;BME280_humidity;BME280_pressure;Samples;Min_cycle;Max_cycle;Signal;HPM_P1;HPM_P2
2022/02/11 00:02:18;;;;;;;6.20;4.37;;;5.20;99.90;;;;;;5075547;28;20437;-72
2022/02/11 00:07:43;;;;;;;5.13;3.80;;;5.20;99.90;;;;;;5033033;28;20485;-71
2022/02/11 00:10:10;;;;;;;4.40;3.70;;;5.10;99.90;;;;;;5064971;28;20544;-72
2022/02/11 00:12:37;;;;;;;6.33;4.00;;;5.10;99.90;;;;;;5075097;28;20432;-71
2022/02/11 00:15:35;;;;;;;5.50;4.80;;;5.10;99.90;;;;;;5075223;28;20453;-71
2022/02/11 00:18:02;;;;;;;4.30;3.07;;;5.10;99.90;;;;;;5076106;28;20449;-72
2022/02/11 00:20:29;;;;;;;4.30;3.43;;;5.00;99.90;;;;;;5075667;28;20445;-72
2022/02/11 00:22:55;;;;;;;7.63;3.80;;;5.00;99.90;;;;;;5075601;28;20452;-72
2022/02/11 00:25:22;;;;;;;4.23;3.63;;;5.00;99.90;;;;;;5074798;28;20457;-72
2022/02/11 00:31:04;;;;;;;5.50;4.07;;;4.80;99.90;;;;;;5074116;28;20412;-72
2022/02/11 00:33:32;;;;;;;3.83;3.37;;;4.80;99.90;;;;;;5075117;28;20854;-72
2022/02/11 00:36:02;;;;;;;4.27;3.87;;;4.70;99.90;;;;;;5074943;28;20441;-72
2022/02/11 00:38:40;;;;;;;5.90;3.27;;;4.70;99.90;;;;;;5074686;28;20436;-72
2022/02/11 00:42:16;;;;;;;6.10;3.70;;;4.70;99.90;;;;;;5074501;28;20896;-72
2022/02/11 00:53:21;;;;;;;10.83;4.23;;;4.70;99.90;;;;;;5074671;28;20408;-72
2022/02/11 01:03:57;;;;;;;5.97;4.83;;;4.60;99.90;;;;;;5073463;28;20529;-71
2022/02/11 01:06:24;;;;;;;8.53;4.90;;;4.60;99.90;;;;;;5073959;28;20760;-72
2022/02/11 01:08:53;;;;;;;12.40;5.93;;;4.60;99.90;;;;;;5074144;28;20475;-72
2022/02/11 01:11:26;;;;;;;8.60;6.40;;;4.50;99.90;;;;;;5074072;28;20527;-72
2022/02/11 01:13:53;;;;;;;8.00;6.50;;;4.50;99.90;;;;;;5073926;28;20464;-71
2022/02/11 01:16:25;;;;;;;7.13;6.20;;;4.60;99.90;;;;;;5074007;28;20781;-71
2022/02/11 01:19:01;;;;;;;7.30;6.50;;;4.60;99.90;;;;;;5073900;28;20527;-71
2022/02/11 01:21:37;;;;;;;9.50;6.20;;;4.60;99.90;;;;;;5073816;28;20494;-71
2022/02/11 01:24:14;;;;;;;7.57;5.50;;;4.60;99.90;;;;;;5073715;28;20468;-71
2022/02/11 01:26:50;;;;;;;9.00;6.90;;;4.60;99.90;;;;;;5073817;28;20429;-71
2022/02/11 01:32:16;;;;;;;11.90;6.63;;;4.50;99.90;;;;;;5043035;28;20823;-72
2022/02/11 01:34:55;;;;;;;10.80;6.80;;;4.60;99.90;;;;;;5073657;28;20496;-71
2022/02/11 01:37:30;;;;;;;9.17;6.97;;;4.60;99.90;;;;;;5073544;28;20444;-72
2022/02/11 01:40:34;;;;;;;10.30;6.80;;;4.50;99.90;;;;;;5074485;28;20425;-72
2022/02/11 01:46:24;;;;;;;9.03;6.70;;;4.50;99.90;;;;;;5073464;28;20436;-72
2022/02/11 01:49:13;;;;;;;7.30;6.00;;;4.50;99.90;;;;;;5073458;28;20526;-72
2022/02/11 01:51:49;;;;;;;9.40;7.10;;;4.50;99.90;;;;;;5073557;28;20456;-72
2022/02/11 01:54:33;;;;;;;12.03;7.53;;;4.40;99.90;;;;;;5073243;28;20472;-72
2022/02/11 01:57:05;;;;;;;11.37;8.07;;;4.50;99.90;;;;;;5073449;28;20439;-72
2022/02/11 02:05:51;;;;;;;14.83;7.10;;;4.40;99.90;;;;;;5069185;28;20607;-71
2022/02/11 02:11:29;;;;;;;9.67;6.87;;;4.30;99.90;;;;;;5073449;28;20486;-71
2022/02/11 02:20:17;;;;;;;13.10;7.80;;;4.20;99.90;;;;;;5073352;28;20525;-71
2022/02/11 02:22:56;;;;;;;14.00;8.17;;;4.20;99.90;;;;;;5072785;28;20429;-71
2022/02/11 02:25:29;;;;;;;18.67;8.13;;;4.20;99.90;;;;;;5073859;28;20462;-72
2022/02/11 02:28:29;;;;;;;12.70;9.17;;;4.20;99.90;;;;;;5073187;28;20605;-72
2022/02/11 02:33:58;;;;;;;12.10;8.57;;;4.20;99.90;;;;;;5073103;28;20514;-71
2022/02/11 02:39:29;;;;;;;14.20;9.43;;;4.20;99.90;;;;;;5061936;28;20432;-71
2022/02/11 02:50:19;;;;;;;15.37;9.30;;;4.20;99.90;;;;;;5073029;28;20408;-72
2022/02/11 02:58:32;;;;;;;16.63;10.13;;;4.10;99.90;;;;;;5076752;28;20392;-71
2022/02/11 03:01:30;;;;;;;16.43;10.50;;;4.00;99.90;;;;;;5076809;28;20432;-71
2022/02/11 03:15:15;;;;;;;14.63;10.90;;;4.00;99.90;;;;;;5076389;28;20448;-71
2022/02/11 03:34:38;;;;;;;14.30;8.80;;;4.20;99.90;;;;;;5076067;28;20417;-71
2022/02/11 03:51:28;;;;;;;16.73;8.30;;;4.10;99.90;;;;;;5075582;28;20409;-71
2022/02/11 03:54:27;;;;;;;13.77;8.17;;;4.10;99.90;;;;;;5075636;28;20475;-71
2022/02/11 04:55:17;;;;;;;18.13;8.43;;;4.50;99.90;;;;;;5063861;28;21061;-71
2022/02/11 05:00:28;;;;;;;16.30;9.17;;;4.50;99.90;;;;;;5074435;28;20400;-71
2022/02/11 05:02:57;;;;;;;14.40;8.57;;;4.60;99.90;;;;;;5074254;28;20780;-71
2022/02/11 05:05:25;;;;;;;15.40;9.23;;;4.60;99.90;;;;;;5074148;28;20472;-71
2022/02/11 05:07:51;;;;;;;13.83;7.43;;;4.60;99.90;;;;;;5073830;28;20797;-72
2022/02/11 05:10:21;;;;;;;14.60;8.17;;;4.60;99.90;;;;;;5074151;28;20548;-72
2022/02/11 05:12:48;;;;;;;19.90;8.80;;;4.60;99.90;;;;;;5073716;28;20448;-72
2022/02/11 05:15:15;;;;;;;15.33;8.97;;;4.50;99.90;;;;;;5073632;28;20998;-71
2022/02/11 05:17:45;;;;;;;18.43;8.43;;;4.60;99.90;;;;;;5073564;28;20445;-71
2022/02/11 05:20:12;;;;;;;14.40;9.13;;;4.70;99.90;;;;;;5073698;28;20908;-71
2022/02/11 05:22:39;;;;;;;15.40;7.50;;;4.70;99.90;;;;;;5073928;28;20448;-71
2022/02/11 05:25:08;;;;;;;19.27;8.70;;;4.60;99.90;;;;;;5074004;28;20464;-71
2022/02/11 05:27:37;;;;;;;14.77;7.70;;;4.60;99.90;;;;;;5073593;28;20951;-71
2022/02/11 05:30:04;;;;;;;14.90;7.60;;;4.60;99.90;;;;;;5073806;28;20892;-71
2022/02/11 05:32:31;;;;;;;23.00;7.90;;;4.70;99.90;;;;;;5073745;28;20452;-71
2022/02/11 05:34:58;;;;;;;12.77;7.13;;;4.70;99.90;;;;;;5073698;28;20469;-71
2022/02/11 05:37:24;;;;;;;23.73;7.80;;;4.70;99.90;;;;;;5073736;28;20444;-71
2022/02/11 05:39:51;;;;;;;16.67;7.53;;;4.80;99.90;;;;;;5073514;28;20872;-71
2022/02/11 05:42:18;;;;;;;15.40;6.73;;;4.70;99.90;;;;;;5073725;28;20451;-71
2022/02/11 05:44:46;;;;;;;15.93;6.23;;;4.80;99.90;;;;;;5073626;28;20464;-71
2022/02/11 05:47:13;;;;;;;16.93;6.93;;;4.80;99.90;;;;;;5073288;28;20448;-71
2022/02/11 05:49:40;;;;;;;18.10;7.20;;;4.80;99.90;;;;;;5073660;28;20481;-71
2022/02/11 05:52:07;;;;;;;18.17;7.60;;;4.80;99.90;;;;;;5073382;28;20433;-71
2022/02/11 05:54:34;;;;;;;18.03;7.07;;;4.80;99.90;;;;;;5073359;28;20476;-71
2022/02/11 05:57:00;;;;;;;12.17;6.83;;;4.80;99.90;;;;;;5073504;28;20437;-71
2022/02/11 05:59:27;;;;;;;13.60;7.30;;;4.90;99.90;;;;;;5073537;28;20425;-71
2022/02/11 06:01:55;;;;;;;8.53;6.37;;;4.80;99.90;;;;;;5073423;28;20453;-71
2022/02/11 06:04:24;;;;;;;13.93;6.90;;;4.90;99.90;;;;;;5073050;28;20473;-71
2022/02/11 06:06:51;;;;;;;8.20;5.10;;;4.90;99.90;;;;;;5073223;28;20456;-71
2022/02/11 06:09:18;;;;;;;16.73;7.30;;;4.90;99.90;;;;;;5073239;28;20488;-71
2022/02/11 06:11:45;;;;;;;18.10;7.37;;;4.90;99.90;;;;;;5073289;28;20444;-71
2022/02/11 06:14:13;;;;;;;21.43;6.93;;;4.90;99.90;;;;;;5073311;28;20456;-71
2022/02/11 06:16:40;;;;;;;15.80;6.50;;;4.90;99.90;;;;;;5073067;28;20962;-71
2022/02/11 06:19:08;;;;;;;16.33;6.43;;;4.90;99.90;;;;;;5073134;28;20993;-71
2022/02/11 06:21:34;;;;;;;15.27;6.23;;;4.90;99.90;;;;;;5073536;28;20449;-71
2022/02/11 06:24:01;;;;;;;21.63;8.20;;;4.90;99.90;;;;;;5073338;28;20491;-71
2022/02/11 06:26:29;;;;;;;19.07;6.80;;;4.90;99.90;;;;;;5072996;28;20445;-72
2022/02/11 06:28:56;;;;;;;12.20;6.10;;;5.00;99.90;;;;;;5074433;28;20479;-71
2022/02/11 06:31:23;;;;;;;10.40;6.10;;;5.00;99.90;;;;;;5077715;28;20947;-71
2022/02/11 06:33:50;;;;;;;15.63;6.07;;;4.90;99.90;;;;;;5077485;28;20471;-71
2022/02/11 06:36:18;;;;;;;13.13;5.77;;;5.00;99.90;;;;;;5077448;28;20447;-72
2022/02/11 06:38:45;;;;;;;16.37;5.73;;;5.00;99.90;;;;;;5077407;28;20429;-71
2022/02/11 06:41:12;;;;;;;14.63;6.07;;;5.00;99.90;;;;;;5078161;28;20449;-71
2022/02/11 06:43:38;;;;;;;12.80;6.60;;;5.10;99.90;;;;;;5077256;28;20445;-71
2022/02/11 06:46:05;;;;;;;21.30;6.43;;;5.10;99.90;;;;;;5077060;28;20448;-71
2022/02/11 06:48:32;;;;;;;17.13;5.73;;;5.00;99.90;;;;;;5076840;28;20479;-71
2022/02/11 06:51:00;;;;;;;26.03;7.13;;;5.00;99.90;;;;;;5077385;28;20455;-71
2022/02/11 06:53:28;;;;;;;15.30;5.83;;;5.10;99.90;;;;;;5077425;28;20795;-70
2022/02/11 06:55:55;;;;;;;19.73;5.50;;;5.10;99.90;;;;;;5077103;28;20444;-71
2022/02/11 06:58:22;;;;;;;16.57;5.80;;;5.20;99.90;;;;;;5076919;28;20432;-71
2022/02/11 07:00:50;;;;;;;16.40;5.43;;;5.20;99.90;;;;;;5076849;28;20448;-71
2022/02/11 07:03:18;;;;;;;12.83;4.80;;;5.30;99.90;;;;;;5076942;28;20444;-71
2022/02/11 07:05:45;;;;;;;18.10;5.87;;;5.30;99.90;;;;;;5076865;28;20578;-71
2022/02/11 07:08:13;;;;;;;9.60;4.40;;;5.20;99.90;;;;;;5076618;28;20496;-71
2022/02/11 07:10:41;;;;;;;20.53;5.10;;;5.20;99.90;;;;;;5076587;28;20480;-71
2022/02/11 07:13:13;;;;;;;23.13;5.23;;;5.20;99.90;;;;;;5076503;28;20433;-70
2022/02/11 07:15:40;;;;;;;14.47;5.30;;;5.10;99.90;;;;;;5077449;28;20487;-71
2022/02/11 07:18:07;;;;;;;17.67;5.17;;;5.10;99.90;;;;;;5076342;28;20455;-71
2022/02/11 07:20:34;;;;;;;15.70;4.20;;;5.20;99.90;;;;;;5076261;28;20460;-71
2022/02/11 07:23:00;;;;;;;16.87;5.60;;;5.10;99.90;;;;;;5076357;28;20440;-71
2022/02/11 07:25:27;;;;;;;16.03;5.13;;;5.20;99.90;;;;;;5076125;28;20468;-70
2022/02/11 07:27:55;;;;;;;14.83;4.50;;;5.20;99.90;;;;;;5076143;28;20449;-70
2022/02/11 07:30:22;;;;;;;14.63;4.50;;;5.20;99.90;;;;;;5076054;28;20484;-70
2022/02/11 07:32:51;;;;;;;10.47;3.63;;;5.20;99.90;;;;;;5075877;28;20451;-70
2022/02/11 07:35:18;;;;;;;12.57;3.63;;;5.30;99.90;;;;;;5076113;28;20468;-70
2022/02/11 07:37:45;;;;;;;21.60;3.73;;;5.30;99.90;;;;;;5076066;28;20444;-71
2022/02/11 07:40:13;;;;;;;12.83;4.80;;;5.30;99.90;;;;;;5075686;28;20436;-71
2022/02/11 07:42:40;;;;;;;14.70;3.90;;;5.30;99.90;;;;;;5076043;28;20532;-71
2022/02/11 07:45:09;;;;;;;20.20;4.40;;;5.30;99.90;;;;;;5075885;28;20827;-71
2022/02/11 07:47:36;;;;;;;13.67;3.90;;;5.30;99.90;;;;;;5076102;28;20819;-71
2022/02/11 07:50:04;;;;;;;20.30;4.17;;;5.40;99.90;;;;;;5075894;28;20489;-72
2022/02/11 07:52:30;;;;;;;12.70;5.13;;;5.40;99.90;;;;;;5076168;28;20460;-71
2022/02/11 07:54:57;;;;;;;10.47;3.83;;;5.50;99.90;;;;;;5075762;28;20460;-71
2022/02/11 07:57:24;;;;;;;13.50;4.40;;;5.40;99.90;;;;;;5075733;28;20436;-71
2022/02/11 07:59:51;;;;;;;17.07;4.40;;;5.40;99.90;;;;;;5075660;28;20424;-71
2022/02/11 08:02:19;;;;;;;10.80;4.80;;;5.40;99.90;;;;;;5075542;28;20531;-71
2022/02/11 08:04:46;;;;;;;13.50;4.50;;;5.30;99.90;;;;;;5075487;28;20465;-70
2022/02/11 08:07:13;;;;;;;11.00;4.63;;;5.30;99.90;;;;;;5075345;28;20452;-70
2022/02/11 08:09:39;;;;;;;17.07;5.60;;;5.30;99.90;;;;;;5075310;28;20480;-71
2022/02/11 08:12:07;;;;;;;15.23;5.60;;;5.40;99.90;;;;;;5075336;28;20452;-71
2022/02/11 08:14:33;;;;;;;15.53;6.47;;;5.40;99.90;;;;;;5075225;28;20469;-70
2022/02/11 08:17:00;;;;;;;12.70;5.67;;;5.50;99.90;;;;;;5075252;28;20506;-70
2022/02/11 08:19:28;;;;;;;19.07;6.53;;;5.50;99.90;;;;;;5075181;28;20444;-71
2022/02/11 08:21:55;;;;;;;18.23;6.50;;;5.50;99.90;;;;;;5075171;28;20445;-71
2022/02/11 08:24:21;;;;;;;17.40;6.67;;;5.60;99.90;;;;;;5075057;28;20468;-70
2022/02/11 08:26:48;;;;;;;18.33;5.30;;;5.60;99.90;;;;;;5075074;28;20452;-70
2022/02/11 08:29:21;;;;;;;16.00;5.00;;;5.60;99.90;;;;;;5074851;28;20503;-70
2022/02/11 08:31:48;;;;;;;28.00;5.00;;;5.60;99.90;;;;;;5074805;28;20440;-70
2022/02/11 08:34:15;;;;;;;18.43;4.80;;;5.60;99.90;;;;;;5074835;28;20470;-70
2022/02/11 08:36:43;;;;;;;12.33;4.00;;;5.60;99.90;;;;;;5074845;28;20455;-71
2022/02/11 08:39:09;;;;;;;22.53;5.77;;;5.60;99.90;;;;;;5074535;28;20955;-70
2022/02/11 08:41:36;;;;;;;16.07;4.07;;;5.60;99.90;;;;;;5074714;28;20440;-70
2022/02/11 08:44:03;;;;;;;20.67;4.20;;;5.60;99.90;;;;;;5074451;28;20469;-71
2022/02/11 08:46:31;;;;;;;10.70;3.83;;;5.70;99.90;;;;;;5074768;28;20444;-71
2022/02/11 08:48:58;;;;;;;12.43;2.90;;;5.70;99.90;;;;;;5074509;28;20460;-71
2022/02/11 08:51:25;;;;;;;15.07;4.17;;;5.70;99.90;;;;;;5074528;28;20449;-71
2022/02/11 08:53:53;;;;;;;12.90;4.40;;;5.70;99.90;;;;;;5074479;28;20507;-70
2022/02/11 08:56:20;;;;;;;10.33;3.33;;;5.80;99.90;;;;;;5074487;28;20452;-70
2022/02/11 08:58:47;;;;;;;19.80;3.30;;;5.80;99.90;;;;;;5074453;28;20432;-70
2022/02/11 09:01:13;;;;;;;13.60;2.47;;;5.80;99.90;;;;;;5074401;28;20444;-70
2022/02/11 09:03:40;;;;;;;10.73;2.77;;;5.90;99.90;;;;;;5074318;28;20823;-70
2022/02/11 09:06:08;;;;;;;15.17;3.00;;;5.90;99.90;;;;;;5074310;28;20445;-70
2022/02/11 09:08:35;;;;;;;16.63;2.87;;;5.90;99.90;;;;;;5074240;28;20441;-70
2022/02/11 09:11:05;;;;;;;11.50;3.37;;;6.00;99.90;;;;;;5073964;28;20480;-71
2022/02/11 09:13:32;;;;;;;13.53;2.83;;;6.00;99.90;;;;;;5074067;28;20468;-70
2022/02/11 09:15:58;;;;;;;13.50;3.27;;;6.20;99.90;;;;;;5074287;28;20456;-70
2022/02/11 09:18:26;;;;;;;14.17;2.70;;;6.20;99.90;;;;;;5074020;28;20836;-70
2022/02/11 09:20:54;;;;;;;11.83;2.90;;;6.30;99.90;;;;;;5074257;28;20429;-71
2022/02/11 09:23:23;;;;;;;15.97;3.30;;;6.40;99.90;;;;;;5073960;28;20498;-71
2022/02/11 09:25:50;;;;;;;11.80;2.60;;;6.40;99.90;;;;;;5073880;28;20448;-71
2022/02/11 09:28:18;;;;;;;11.17;3.03;;;6.40;99.90;;;;;;5073676;28;20445;-71
2022/02/11 09:30:45;;;;;;;10.73;2.97;;;6.40;99.90;;;;;;5073798;28;20472;-71
2022/02/11 09:33:13;;;;;;;16.33;3.67;;;6.50;99.90;;;;;;5073917;28;20529;-70
2022/02/11 09:35:41;;;;;;;9.63;2.50;;;6.50;99.90;;;;;;5073355;28;20524;-71
2022/02/11 09:38:08;;;;;;;14.67;3.33;;;6.50;99.90;;;;;;5073825;28;20873;-71
2022/02/11 09:40:39;;;;;;;14.03;2.63;;;6.60;99.90;;;;;;5073805;28;20449;-71
2022/02/11 09:43:09;;;;;;;16.67;4.00;;;6.70;99.90;;;;;;5074291;28;20508;-71
2022/02/11 09:45:38;;;;;;;8.30;2.47;;;7.00;99.90;;;;;;5073622;28;20510;-71
2022/02/11 09:48:05;;;;;;;11.80;2.53;;;7.10;99.90;;;;;;5073677;28;20448;-71
2022/02/11 09:50:32;;;;;;;20.57;3.83;;;7.20;99.90;;;;;;5073544;28;20484;-71
2022/02/11 09:52:59;;;;;;;12.77;4.50;;;7.20;99.90;;;;;;5073635;28;20452;-70
2022/02/11 09:55:34;;;;;;;9.33;2.40;;;7.20;99.90;;;;;;5074260;28;20468;-70
2022/02/11 09:58:01;;;;;;;10.83;2.90;;;7.20;99.80;;;;;;5073712;28;20428;-71
2022/02/11 10:00:28;;;;;;;12.23;3.13;;;7.30;99.40;;;;;;5073573;28;20451;-71
2022/02/11 10:02:59;;;;;;;8.80;2.67;;;7.30;99.10;;;;;;5073434;28;20474;-71
2022/02/11 10:05:28;;;;;;;8.20;2.63;;;7.40;99.90;;;;;;5073303;28;20476;-71
2022/02/11 10:07:55;;;;;;;15.20;3.87;;;7.30;99.90;;;;;;5073232;28;20468;-71
2022/02/11 10:13:05;;;;;;;8.90;2.47;;;7.30;99.60;;;;;;5073291;28;20440;-71
2022/02/11 10:15:33;;;;;;;13.23;2.87;;;7.30;99.90;;;;;;5073268;28;20471;-71
2022/02/11 10:18:01;;;;;;;10.40;2.77;;;7.20;99.90;;;;;;5073371;28;20963;-71
2022/02/11 10:20:29;;;;;;;8.13;2.50;;;7.20;99.90;;;;;;5073256;28;20433;-71
2022/02/11 10:23:16;;;;;;;8.80;2.10;;;7.40;99.90;;;;;;5073296;28;20532;-70
2022/02/11 10:25:58;;;;;;;12.93;3.23;;;7.50;99.90;;;;;;5073148;28;20503;-71
2022/02/11 10:28:27;;;;;;;10.20;2.70;;;7.60;99.90;;;;;;5073313;28;21027;-71
2022/02/11 10:31:19;;;;;;;10.13;1.97;;;7.70;99.90;;;;;;5073125;28;20476;-71
2022/02/11 10:34:00;;;;;;;9.00;2.40;;;7.70;99.90;;;;;;5073193;28;20469;-70
2022/02/11 10:36:28;;;;;;;11.27;2.70;;;7.80;99.90;;;;;;5072722;28;20433;-71
2022/02/11 10:39:04;;;;;;;7.23;2.70;;;7.80;99.90;;;;;;5072983;28;20444;-71
2022/02/11 10:41:32;;;;;;;16.13;3.20;;;7.80;98.80;;;;;;5073178;28;20417;-71
2022/02/11 10:43:59;;;;;;;8.10;2.80;;;7.80;99.10;;;;;;5072967;28;20456;-71
2022/02/11 10:46:26;;;;;;;10.40;2.87;;;8.00;98.80;;;;;;5073027;28;20448;-71
2022/02/11 10:48:59;;;;;;;13.43;2.90;;;8.10;98.20;;;;;;5072745;28;20479;-71
2022/02/11 10:51:26;;;;;;;10.90;2.70;;;8.10;97.40;;;;;;5072921;28;20472;-71
2022/02/11 10:53:53;;;;;;;13.33;2.27;;;8.20;97.80;;;;;;5073819;28;20846;-70
2022/02/11 10:56:20;;;;;;;12.20;2.47;;;8.30;96.60;;;;;;5072957;28;20449;-71
2022/02/11 10:58:54;;;;;;;10.83;2.73;;;8.50;96.10;;;;;;5072869;28;20502;-71
2022/02/11 11:01:21;;;;;;;14.30;3.80;;;8.70;96.50;;;;;;5072940;28;20425;-71
2022/02/11 11:03:48;;;;;;;10.20;2.33;;;8.80;95.20;;;;;;5072834;28;20449;-71
2022/02/11 11:06:18;;;;;;;8.70;2.83;;;8.80;93.40;;;;;;5072723;28;20448;-71
2022/02/11 11:08:47;;;;;;;12.03;3.17;;;8.70;93.20;;;;;;5072877;28;20428;-71
2022/02/11 11:11:17;;;;;;;7.83;3.13;;;8.70;93.40;;;;;;5072824;28;20483;-71
2022/02/11 11:13:48;;;;;;;14.93;2.57;;;8.60;91.00;;;;;;5072427;28;20900;-70
2022/02/11 11:16:17;;;;;;;15.33;2.80;;;8.60;92.00;;;;;;5076038;28;20450;-70
2022/02/11 11:18:44;;;;;;;13.60;3.43;;;8.60;90.80;;;;;;5075980;28;20911;-70
2022/02/11 11:21:13;;;;;;;12.23;2.67;;;8.50;90.90;;;;;;5076437;28;20463;-70
2022/02/11 11:23:53;;;;;;;9.20;2.23;;;8.50;92.10;;;;;;5076030;28;20944;-70
2022/02/11 11:26:21;;;;;;;13.30;3.77;;;8.70;91.80;;;;;;5076389;28;20848;-71
2022/02/11 11:28:49;;;;;;;9.87;3.03;;;8.90;92.00;;;;;;5076191;28;20443;-70
2022/02/11 11:31:27;;;;;;;13.67;2.90;;;9.50;91.20;;;;;;5076050;28;20866;-70
2022/02/11 11:34:27;;;;;;;15.43;3.10;;;10.20;87.40;;;;;;5075748;28;20468;-70
2022/02/11 11:36:56;;;;;;;10.07;3.30;;;10.70;82.80;;;;;;5075745;28;20476;-70
2022/02/11 11:39:25;;;;;;;10.40;2.43;;;11.00;79.50;;;;;;5076043;28;20448;-71
2022/02/11 11:42:07;;;;;;;14.80;4.33;;;11.00;79.00;;;;;;5076016;28;20445;-70
2022/02/11 11:44:46;;;;;;;12.20;3.47;;;11.00;77.90;;;;;;5075926;28;20548;-70
2022/02/11 11:47:16;;;;;;;11.33;3.00;;;10.80;77.20;;;;;;5075541;28;20939;-71
2022/02/11 11:49:49;;;;;;;12.60;2.30;;;10.90;81.30;;;;;;5075529;28;20949;-71
2022/02/11 11:52:15;;;;;;;11.73;2.67;;;11.40;81.80;;;;;;5075790;28;20418;-70
2022/02/11 11:54:43;;;;;;;6.70;2.40;;;11.80;77.50;;;;;;5075594;28;20464;-71
2022/02/11 11:57:14;;;;;;;8.73;3.30;;;12.20;72.70;;;;;;5075570;28;20447;-70
2022/02/11 11:59:45;;;;;;;13.53;2.73;;;11.90;63.50;;;;;;5075319;28;20922;-70
2022/02/11 12:02:14;;;;;;;16.90;3.50;;;11.30;64.00;;;;;;5075569;28;20911;-70
2022/02/11 12:04:49;;;;;;;7.23;2.40;;;10.70;69.30;;;;;;5075484;28;20824;-70
2022/02/11 12:07:17;;;;;;;11.80;2.60;;;10.30;71.40;;;;;;5075373;28;20460;-70
2022/02/11 12:09:48;;;;;;;11.60;2.97;;;9.90;76.60;;;;;;5075482;28;20453;-71
2022/02/11 12:12:16;;;;;;;10.53;2.33;;;9.60;80.50;;;;;;5075370;28;20472;-71
2022/02/11 12:14:44;;;;;;;13.03;3.07;;;9.40;84.60;;;;;;5075249;28;20471;-71
2022/02/11 12:17:11;;;;;;;18.23;3.33;;;9.20;86.30;;;;;;5075346;28;20436;-71
2022/02/11 12:19:39;;;;;;;9.27;2.60;;;9.20;86.50;;;;;;5075232;28;20448;-71
2022/02/11 12:22:07;;;;;;;12.97;3.10;;;9.00;83.20;;;;;;5075140;28;20950;-70
2022/02/11 12:27:25;;;;;;;7.30;2.63;;;9.90;77.60;;;;;;5075420;28;20499;-71
2022/02/11 12:29:54;;;;;;;9.20;2.10;;;10.30;71.60;;;;;;5075107;28;20429;-71
2022/02/11 12:32:22;;;;;;;8.43;2.17;;;10.40;67.60;;;;;;5074517;28;20481;-70
2022/02/11 12:34:54;;;;;;;10.10;2.37;;;10.80;63.90;;;;;;5074856;28;20461;-70
2022/02/11 12:37:21;;;;;;;12.17;2.10;;;11.30;60.60;;;;;;5075115;28;20441;-71
2022/02/11 12:39:49;;;;;;;9.00;2.50;;;11.90;56.70;;;;;;5074774;28;20457;-71
2022/02/11 12:42:25;;;;;;;10.93;2.40;;;12.50;53.70;;;;;;5075243;28;20467;-71
2022/02/11 12:44:52;;;;;;;7.90;2.47;;;12.80;52.60;;;;;;5074392;28;20471;-70
2022/02/11 12:47:19;;;;;;;8.10;2.77;;;13.00;52.10;;;;;;5074645;28;20472;-70
2022/02/11 12:49:48;;;;;;;6.97;2.40;;;13.10;52.80;;;;;;5074588;28;20530;-71
2022/02/11 12:52:19;;;;;;;11.20;3.07;;;13.40;52.00;;;;;;5074527;28;20472;-71
2022/02/11 12:55:18;;;;;;;5.17;2.30;;;13.50;51.60;;;;;;5074083;28;20468;-70
2022/02/11 12:57:52;;;;;;;8.70;2.80;;;13.40;50.30;;;;;;5074471;28;20433;-70
2022/02/11 13:00:22;;;;;;;13.40;3.73;;;12.80;50.00;;;;;;5074825;28;20456;-70
2022/02/11 13:02:50;;;;;;;7.50;3.70;;;12.50;51.10;;;;;;5074020;28;20918;-70
2022/02/11 13:05:20;;;;;;;13.87;6.13;;;12.30;51.20;;;;;;5074239;28;20552;-70
2022/02/11 13:07:48;;;;;;;19.17;6.57;;;12.40;52.40;;;;;;5073945;28;20576;-71
2022/02/11 13:10:21;;;;;;;14.47;5.73;;;12.60;52.20;;;;;;5074165;28;20449;-71
2022/02/11 13:12:51;;;;;;;15.37;7.20;;;13.10;52.70;;;;;;5074247;28;20508;-71
2022/02/11 13:15:19;;;;;;;18.73;7.73;;;13.30;51.40;;;;;;5074003;28;20463;-71
2022/02/11 13:17:47;;;;;;;14.20;5.80;;;13.40;50.00;;;;;;5074026;28;20456;-71
2022/02/11 13:20:18;;;;;;;17.50;9.23;;;13.80;50.20;;;;;;5074089;28;20924;-69
2022/02/11 13:22:46;;;;;;;17.20;6.73;;;14.30;50.30;;;;;;5074007;28;20439;-69
2022/02/11 13:25:15;;;;;;;15.83;9.17;;;14.70;46.90;;;;;;5073807;28;20473;-68
2022/02/11 13:27:44;;;;;;;16.73;7.53;;;14.80;45.60;;;;;;5074026;28;20526;-68
2022/02/11 13:30:14;;;;;;;12.63;5.97;;;14.90;46.80;;;;;;5073718;28;20449;-68
2022/02/11 13:32:41;;;;;;;11.37;6.37;;;15.00;46.20;;;;;;5073783;28;20473;-68
2022/02/11 13:35:09;;;;;;;15.53;6.60;;;15.00;45.40;;;;;;5073356;28;20468;-68
2022/02/11 13:37:40;;;;;;;10.77;3.53;;;15.00;44.10;;;;;;5073282;28;20451;-68
2022/02/11 13:40:13;;;;;;;8.43;5.07;;;15.00;41.90;;;;;;5073811;28;20461;-68
2022/02/11 13:42:40;;;;;;;13.40;5.33;;;14.80;40.90;;;;;;5073578;28;20441;-68
2022/02/11 13:45:10;;;;;;;9.30;2.57;;;14.60;40.20;;;;;;5073468;28;20491;-68
2022/02/11 13:47:39;;;;;;;6.27;3.77;;;14.40;41.50;;;;;;5073604;28;20460;-68
2022/02/11 13:50:07;;;;;;;15.90;8.23;;;14.40;42.70;;;;;;5073556;28;20475;-68
2022/02/11 13:53:06;;;;;;;19.10;11.20;;;14.60;42.20;;;;;;5073451;28;20479;-68
2022/02/11 13:55:33;;;;;;;10.17;5.93;;;14.80;41.40;;;;;;5073586;28;20465;-70
2022/02/11 13:58:14;;;;;;;12.10;6.73;;;15.10;41.00;;;;;;5073570;28;20436;-70
2022/02/11 14:00:42;;;;;;;7.03;4.40;;;15.50;40.90;;;;;;5073185;28;20460;-70
2022/02/11 14:03:19;;;;;;;6.07;3.03;;;15.30;39.10;;;;;;5073465;28;20448;-70
2022/02/11 14:05:47;;;;;;;4.97;1.00;;;15.00;37.00;;;;;;5073407;28;20807;-68
2022/02/11 14:08:14;;;;;;;9.83;1.80;;;14.50;38.60;;;;;;5073003;28;20834;-69
2022/02/11 14:10:43;;;;;;;6.03;2.07;;;14.00;38.50;;;;;;5073130;28;20441;-68
2022/02/11 14:13:11;;;;;;;4.63;1.60;;;13.60;39.70;;;;;;5073086;28;20951;-69
2022/02/11 14:15:39;;;;;;;8.77;2.00;;;13.00;39.20;;;;;;5072938;28;20469;-68
2022/02/11 14:18:07;;;;;;;6.63;1.57;;;12.40;42.20;;;;;;5073285;28;20456;-68
2022/02/11 14:20:38;;;;;;;6.53;2.33;;;11.60;42.60;;;;;;5073249;28;20448;-68
2022/02/11 14:23:12;;;;;;;6.93;1.67;;;11.00;45.30;;;;;;5073294;28;20460;-68
2022/02/11 14:25:39;;;;;;;5.97;1.60;;;10.50;45.20;;;;;;5073111;28;20471;-68
2022/02/11 14:28:06;;;;;;;8.17;1.87;;;10.30;47.70;;;;;;5072843;28;20879;-68
2022/02/11 14:30:32;;;;;;;4.70;1.30;;;10.00;48.10;;;;;;5073104;28;20456;-68
2022/02/11 14:32:59;;;;;;;3.40;1.40;;;9.80;49.30;;;;;;5072675;28;20485;-68
2022/02/11 14:35:26;;;;;;;13.30;2.73;;;9.70;50.30;;;;;;5073054;28;20871;-68
2022/02/11 14:37:54;;;;;;;9.83;1.80;;;9.70;52.40;;;;;;5073143;28;20441;-68
2022/02/11 14:40:20;;;;;;;4.10;1.90;;;9.90;50.70;;;;;;5072784;28;20997;-68
2022/02/11 14:42:47;;;;;;;8.07;1.97;;;10.00;49.00;;;;;;5073044;28;20451;-68
2022/02/11 14:45:14;;;;;;;5.73;1.50;;;10.00;49.60;;;;;;5072973;28;20461;-68
2022/02/11 14:47:40;;;;;;;5.20;1.60;;;10.00;50.80;;;;;;5073044;28;20452;-69
2022/02/11 14:50:08;;;;;;;8.43;1.80;;;10.30;49.90;;;;;;5074714;28;20435;-71
2022/02/11 14:52:35;;;;;;;9.10;1.80;;;10.50;49.50;;;;;;5076930;28;20476;-70
2022/02/11 14:55:03;;;;;;;6.93;1.60;;;10.60;49.70;;;;;;5076781;28;20476;-69
2022/02/11 14:57:30;;;;;;;7.68;2.00;;;10.70;50.90;;;;;;5076428;28;20449;-69
2022/02/11 14:59:57;;;;;;;9.17;2.50;;;10.70;48.00;;;;;;5077154;28;20289;-69
2022/02/11 15:02:23;;;;;;;10.70;2.70;;;10.60;48.40;;;;;;5077214;28;20447;-68
2022/02/11 15:04:50;;;;;;;7.53;1.77;;;10.50;49.50;;;;;;5077008;28;20963;-68
2022/02/11 15:07:17;;;;;;;11.03;1.87;;;10.40;49.10;;;;;;5076703;28;20457;-70
2022/02/11 15:09:45;;;;;;;10.70;2.43;;;10.40;49.30;;;;;;5076378;28;20502;-69
2022/02/11 15:12:13;;;;;;;3.50;1.37;;;10.40;48.80;;;;;;5076552;28;20526;-69
2022/02/11 15:14:40;;;;;;;5.93;1.40;;;10.30;49.50;;;;;;5076392;28;20480;-69
2022/02/11 15:17:07;;;;;;;7.83;1.50;;;10.10;49.20;;;;;;5076476;28;20429;-69
2022/02/11 15:19:34;;;;;;;5.97;2.20;;;9.90;50.50;;;;;;5076365;28;20483;-68
2022/02/11 15:22:00;;;;;;;5.00;1.57;;;9.80;50.80;;;;;;5076308;28;20444;-68
2022/02/11 15:24:27;;;;;;;6.77;1.50;;;9.60;50.80;;;;;;5075883;28;20854;-68
2022/02/11 15:26:55;;;;;;;5.00;1.50;;;9.50;51.20;;;;;;5075933;28;20449;-68
2022/02/11 15:29:23;;;;;;;8.30;2.40;;;9.20;52.60;;;;;;5076107;28;20445;-68
2022/02/11 15:31:50;;;;;;;12.87;2.40;;;9.10;52.50;;;;;;5076004;28;20487;-68
2022/02/11 15:34:17;;;;;;;7.37;1.90;;;9.00;53.70;;;;;;5076042;28;20477;-68
2022/02/11 15:36:44;;;;;;;3.87;1.30;;;8.90;53.50;;;;;;5075755;28;20447;-68
2022/02/11 15:39:11;;;;;;;7.83;2.47;;;8.90;54.20;;;;;;5075703;28;20961;-68
2022/02/11 15:41:37;;;;;;;10.57;1.57;;;8.90;54.40;;;;;;5075953;28;20444;-69
2022/02/11 15:44:04;;;;;;;6.70;1.40;;;8.90;55.10;;;;;;5075843;28;20491;-68
2022/02/11 15:46:32;;;;;;;7.63;1.93;;;9.00;55.80;;;;;;5075611;28;20436;-68
2022/02/11 15:48:59;;;;;;;6.07;1.43;;;9.00;55.50;;;;;;5075788;28;20452;-69
2022/02/11 15:51:26;;;;;;;7.37;1.90;;;8.90;55.60;;;;;;5075671;28;20626;-69
2022/02/11 15:53:52;;;;;;;6.20;1.80;;;8.90;56.60;;;;;;5075726;28;20499;-68
2022/02/11 15:56:20;;;;;;;10.27;1.83;;;8.80;56.00;;;;;;5075725;28;20455;-68